Time;durP1;ratioP1;P1;durP2;ratioP2;P2;SDS_P1;SDS_P2;PMS_P1;PMS_P2;Temp;Humidity;BMP_temperature;BMP_pressure;BME280_temperature;BME280_humidity;BME280_pressure;Samples;Min_cycle;Max_cycle;Signal;HPM_P1;HPM_P2
2023/03/24 00:01:38;;;;;;;10.52;4.20;;;12.40;99.90;;;;;;5056512;28;20079;-91
2023/03/24 00:04:09;;;;;;;12.73;4.85;;;13.00;99.90;;;;;;5056537;28;20075;-90
2023/03/24 00:06:35;;;;;;;7.70;3.83;;;12.50;99.90;;;;;;5056425;28;20040;-90
2023/03/24 00:09:03;;;;;;;9.63;3.88;;;13.80;99.90;;;;;;5056139;28;20025;-91
2023/03/24 00:11:29;;;;;;;9.63;4.25;;;12.40;99.90;;;;;;5056375;28;20112;-91
2023/03/24 00:13:57;;;;;;;9.57;4.15;;;12.60;99.90;;;;;;5055998;28;20140;-90
2023/03/24 00:16:33;;;;;;;5.97;4.13;;;12.60;99.90;;;;;;5056043;28;20021;-91
2023/03/24 00:18:59;;;;;;;6.07;3.78;;;12.50;99.90;;;;;;5056367;28;20025;-92
2023/03/24 00:21:38;;;;;;;8.00;3.78;;;13.20;99.90;;;;;;5063820;28;20016;-92
2023/03/24 00:24:06;;;;;;;5.85;3.97;;;12.80;99.90;;;;;;5068177;28;20029;-91
2023/03/24 00:26:37;;;;;;;7.03;3.80;;;12.40;99.90;;;;;;5057182;28;20021;-91
2023/03/24 00:29:20;;;;;;;7.60;4.97;;;12.80;99.90;;;;;;5056305;28;20100;-91
2023/03/24 00:31:50;;;;;;;7.32;4.15;;;13.00;99.90;;;;;;5056176;28;20021;-91
2023/03/24 00:34:17;;;;;;;7.10;4.25;;;13.20;99.90;;;;;;5056405;28;20037;-90
2023/03/24 00:36:42;;;;;;;4.90;3.90;;;13.10;99.90;;;;;;5056704;28;20047;-91
2023/03/24 00:39:22;;;;;;;6.72;3.88;;;12.40;99.90;;;;;;5056460;28;20022;-91
2023/03/24 00:41:48;;;;;;;7.73;3.70;;;13.10;99.90;;;;;;5056153;28;20021;-92
2023/03/24 00:44:19;;;;;;;8.93;4.38;;;12.50;99.90;;;;;;5055678;28;20053;-91
2023/03/24 00:46:54;;;;;;;6.38;3.97;;;13.20;99.90;;;;;;5056064;28;20025;-91
2023/03/24 00:52:19;;;;;;;6.68;3.40;;;12.50;99.90;;;;;;5055858;28;20538;-91
2023/03/24 00:54:45;;;;;;;10.43;3.90;;;12.60;99.90;;;;;;5055396;28;20029;-92
2023/03/24 00:57:20;;;;;;;8.50;3.83;;;13.20;99.90;;;;;;5055516;28;20017;-92
2023/03/24 00:59:53;;;;;;;7.03;3.78;;;12.60;99.90;;;;;;5055394;28;20083;-91
2023/03/24 01:02:23;;;;;;;6.78;3.67;;;13.30;99.90;;;;;;5046941;28;20017;-91
2023/03/24 01:04:57;;;;;;;7.53;3.70;;;12.80;99.90;;;;;;5055004;28;20025;-93
2023/03/24 01:07:31;;;;;;;7.03;3.70;;;13.00;99.90;;;;;;5055166;28;20403;-92
2023/03/24 01:19:13;;;;;;;3.92;3.20;;;12.60;99.90;;;;;;5054696;28;20476;-92
2023/03/24 01:21:44;;;;;;;8.05;3.95;;;13.00;99.90;;;;;;5055147;28;20052;-91
2023/03/24 01:24:12;;;;;;;5.85;3.25;;;13.20;99.90;;;;;;5055527;28;20021;-91
2023/03/24 01:26:38;;;;;;;4.93;3.40;;;13.20;99.90;;;;;;5053805;28;20033;-91
2023/03/24 01:29:04;;;;;;;7.05;3.75;;;11.50;99.90;;;;;;5054789;28;20025;-92
2023/03/24 01:31:30;;;;;;;5.60;3.72;;;12.60;99.90;;;;;;5055184;28;20028;-92
2023/03/24 01:34:01;;;;;;;5.93;3.90;;;12.60;99.90;;;;;;5054531;28;20442;-90
2023/03/24 01:36:27;;;;;;;4.85;3.72;;;12.70;99.90;;;;;;5054483;28;20150;-91
2023/03/24 01:38:53;;;;;;;5.18;3.55;;;13.30;99.90;;;;;;5054818;28;20048;-91
2023/03/24 01:41:19;;;;;;;5.68;3.78;;;13.00;99.90;;;;;;5054868;28;20104;-92
2023/03/24 01:43:44;;;;;;;4.40;3.25;;;13.70;99.90;;;;;;5054810;28;20029;-93
2023/03/24 01:46:17;;;;;;;5.60;3.45;;;13.60;99.90;;;;;;5070510;28;20040;-92
2023/03/24 01:48:58;;;;;;;7.90;4.15;;;12.60;99.90;;;;;;5060095;28;20021;-91
2023/03/24 01:51:38;;;;;;;6.43;3.65;;;12.60;99.90;;;;;;5054886;28;20376;-92
2023/03/24 01:54:15;;;;;;;4.70;3.83;;;13.30;99.90;;;;;;5054808;28;20032;-92
2023/03/24 01:56:46;;;;;;;8.55;3.92;;;12.60;99.90;;;;;;5054210;28;20025;-91
2023/03/24 01:59:19;;;;;;;7.68;3.75;;;12.90;99.90;;;;;;5054633;28;20031;-91
2023/03/24 02:01:45;;;;;;;5.20;3.65;;;12.50;99.90;;;;;;5054652;28;20032;-92
2023/03/24 02:04:17;;;;;;;5.88;3.53;;;12.50;99.90;;;;;;5053673;28;20504;-90
2023/03/24 02:06:44;;;;;;;7.15;2.97;;;13.30;99.90;;;;;;5054342;28;20025;-90
2023/03/24 02:09:12;;;;;;;4.75;2.20;;;12.70;99.90;;;;;;5054355;28;20029;-91
2023/03/24 02:11:39;;;;;;;8.45;2.30;;;13.00;99.90;;;;;;5053992;28;20053;-90
2023/03/24 02:14:06;;;;;;;3.58;2.00;;;13.90;99.90;;;;;;5054144;28;20045;-90
2023/03/24 02:17:00;;;;;;;1.70;1.60;;;13.90;99.90;;;;;;5053963;28;20461;-91
2023/03/24 02:19:47;;;;;;;5.13;1.40;;;12.50;99.90;;;;;;5054279;28;20095;-92
2023/03/24 02:22:34;;;;;;;5.22;1.80;;;12.50;99.90;;;;;;5054275;28;20025;-92
2023/03/24 02:25:45;;;;;;;5.43;1.33;;;12.40;99.90;;;;;;5054296;28;20025;-92
2023/03/24 02:29:11;;;;;;;7.25;1.23;;;12.40;99.90;;;;;;5054360;28;20104;-91
2023/03/24 02:31:57;;;;;;;5.55;1.55;;;11.70;99.90;;;;;;5033566;28;20035;-91
2023/03/24 02:35:00;;;;;;;7.38;1.33;;;12.20;99.90;;;;;;5054230;28;20060;-91
2023/03/24 02:37:57;;;;;;;4.50;1.42;;;12.10;99.90;;;;;;5053669;28;20028;-89
2023/03/24 02:40:46;;;;;;;8.07;1.77;;;12.10;99.90;;;;;;5054223;28;20025;-91
2023/03/24 02:43:36;;;;;;;3.20;1.35;;;12.00;99.90;;;;;;5054108;28;20021;-90
2023/03/24 02:46:47;;;;;;;8.40;1.65;;;12.00;99.90;;;;;;5053919;28;20029;-92
2023/03/24 02:49:58;;;;;;;8.23;1.50;;;11.90;99.90;;;;;;5044475;28;20041;-93
2023/03/24 02:52:42;;;;;;;19.23;2.00;;;11.90;99.90;;;;;;5054000;28;20460;-91
2023/03/24 02:55:32;;;;;;;10.82;1.80;;;12.60;99.90;;;;;;5053556;28;20029;-91
2023/03/24 02:58:01;;;;;;;8.52;1.77;;;12.10;99.90;;;;;;5053648;28;20393;-91
2023/03/24 03:00:33;;;;;;;9.50;1.75;;;12.20;99.90;;;;;;5053674;28;20052;-90
2023/03/24 03:03:06;;;;;;;12.18;1.85;;;11.70;99.90;;;;;;5053890;28;20116;-91
2023/03/24 03:05:57;;;;;;;10.32;1.85;;;12.10;99.90;;;;;;5053230;28;20049;-92
2023/03/24 03:08:33;;;;;;;6.68;1.67;;;12.60;99.90;;;;;;5053769;28;20068;-92
2023/03/24 03:11:13;;;;;;;7.60;1.98;;;11.60;99.90;;;;;;5076658;28;22228;-92
2023/03/24 03:14:02;;;;;;;12.20;2.35;;;12.40;99.90;;;;;;5063932;28;20098;-92
2023/03/24 03:16:47;;;;;;;12.05;2.15;;;11.70;99.90;;;;;;5058377;28;20041;-91
2023/03/24 03:20:12;;;;;;;12.43;2.58;;;11.40;99.90;;;;;;5057105;28;20090;-91
2023/03/24 03:22:59;;;;;;;10.05;2.30;;;11.30;99.90;;;;;;5015121;28;20165;-92
2023/03/24 03:25:32;;;;;;;13.25;2.83;;;10.00;99.90;;;;;;5057538;28;20372;-92
2023/03/24 03:28:07;;;;;;;9.23;2.78;;;11.80;99.90;;;;;;5057249;28;20025;-92
2023/03/24 03:30:58;;;;;;;13.80;2.22;;;11.60;99.90;;;;;;5056974;28;20074;-91
2023/03/24 03:33:33;;;;;;;12.20;2.72;;;11.00;99.90;;;;;;5056555;28;20542;-90
2023/03/24 03:36:26;;;;;;;14.15;2.65;;;12.50;99.90;;;;;;5056787;28;20056;-90
2023/03/24 03:39:18;;;;;;;7.82;2.15;;;11.10;99.90;;;;;;5056795;28;20024;-92
2023/03/24 03:41:44;;;;;;;6.40;2.05;;;11.00;99.90;;;;;;5056715;28;20021;-91
2023/03/24 03:44:10;;;;;;;11.50;2.95;;;11.60;99.90;;;;;;5057225;28;20172;-90
2023/03/24 03:46:36;;;;;;;18.92;4.00;;;11.70;99.90;;;;;;5056658;28;20051;-90
2023/03/24 03:49:03;;;;;;;7.72;2.10;;;11.60;99.90;;;;;;5056421;28;20021;-91
2023/03/24 03:51:29;;;;;;;14.25;2.80;;;11.50;99.90;;;;;;5056739;28;20029;-91
2023/03/24 03:54:11;;;;;;;12.05;2.42;;;9.90;99.90;;;;;;5056436;28;20040;-91
2023/03/24 03:56:43;;;;;;;18.50;3.08;;;11.10;99.90;;;;;;5056604;28;20373;-90
2023/03/24 03:59:32;;;;;;;24.13;5.28;;;11.50;99.90;;;;;;5055673;28;20029;-91
2023/03/24 04:02:28;;;;;;;14.15;2.58;;;11.40;99.90;;;;;;5056924;28;20020;-91
2023/03/24 04:04:58;;;;;;;22.15;4.28;;;10.50;99.90;;;;;;5056723;28;20029;-92
2023/03/24 04:08:06;;;;;;;17.75;2.88;;;11.90;99.90;;;;;;5056915;28;20017;-92
2023/03/24 04:10:50;;;;;;;22.42;3.35;;;10.90;99.90;;;;;;5056591;28;20350;-92
2023/03/24 04:13:57;;;;;;;15.95;2.97;;;11.80;99.90;;;;;;5055872;28;20037;-91
2023/03/24 04:16:25;;;;;;;18.10;3.17;;;10.90;99.90;;;;;;5056715;28;20032;-92
2023/03/24 04:19:31;;;;;;;19.83;4.05;;;10.80;99.90;;;;;;5056045;28;20060;-91
2023/03/24 04:22:12;;;;;;;19.55;3.75;;;10.30;99.90;;;;;;5056266;28;20021;-92
2023/03/24 04:25:01;;;;;;;25.67;3.78;;;9.40;99.90;;;;;;5055755;28;20472;-90
2023/03/24 04:27:55;;;;;;;20.38;2.95;;;11.70;99.90;;;;;;5055753;28;20100;-91
2023/03/24 04:30:30;;;;;;;15.02;3.22;;;10.90;99.90;;;;;;5055076;28;20104;-91
2023/03/24 04:33:00;;;;;;;19.20;3.67;;;11.50;99.90;;;;;;5061438;28;20002;-90
2023/03/24 04:35:33;;;;;;;18.58;3.03;;;9.70;99.90;;;;;;5068430;28;20037;-91
2023/03/24 04:38:13;;;;;;;19.83;3.58;;;10.80;99.90;;;;;;5056187;28;20033;-91
2023/03/24 04:40:41;;;;;;;24.42;3.40;;;10.80;99.90;;;;;;5055527;28;20025;-91
2023/03/24 04:43:10;;;;;;;18.70;3.03;;;11.30;99.90;;;;;;5055597;28;20574;-91
2023/03/24 04:45:36;;;;;;;25.05;4.07;;;11.30;99.90;;;;;;5055436;28;20067;-90
2023/03/24 04:57:04;;;;;;;30.40;4.75;;;10.80;99.90;;;;;;5055728;28;20439;-92
2023/03/24 04:59:33;;;;;;;26.90;4.68;;;12.20;99.90;;;;;;5055520;28;20111;-92
2023/03/24 05:02:07;;;;;;;31.48;4.80;;;11.40;99.90;;;;;;5055417;28;20021;-92
2023/03/24 05:04:35;;;;;;;21.95;3.70;;;10.40;99.90;;;;;;5055425;28;20104;-91
2023/03/24 05:07:12;;;;;;;;;;;;;;;;;;;;;
2023/03/24 05:09:49;;;;;;;22.25;3.95;;;11.30;99.90;;;;;;4988748;28;20043;-91
2023/03/24 05:12:29;;;;;;;22.67;3.78;;;11.30;99.90;;;;;;4993869;28;20050;-91
2023/03/24 05:15:05;;;;;;;22.45;4.78;;;10.80;99.90;;;;;;5026661;28;20049;-92
2023/03/24 05:17:31;;;;;;;27.48;4.03;;;10.20;99.90;;;;;;5054943;28;20036;-92
2023/03/24 05:19:56;;;;;;;28.00;4.85;;;11.00;99.90;;;;;;5055032;28;20021;-91
2023/03/24 05:22:22;;;;;;;25.60;3.90;;;10.70;99.90;;;;;;5055381;28;20479;-91
2023/03/24 05:24:55;;;;;;;23.00;4.05;;;10.80;99.90;;;;;;5054669;28;20029;-91
2023/03/24 05:27:30;;;;;;;;;;;;;;;;;;;;;
2023/03/24 05:29:57;;;;;;;46.45;6.28;;;11.60;99.90;;;;;;5030408;28;20087;-91
2023/03/24 05:32:23;;;;;;;22.50;3.80;;;12.00;99.90;;;;;;5047792;28;20541;-94
2023/03/24 05:34:48;;;;;;;22.98;3.67;;;11.20;99.90;;;;;;5033744;28;20037;-90
2023/03/24 05:37:54;;;;;;;23.90;3.83;;;11.40;99.90;;;;;;5034448;28;20427;-91
2023/03/24 05:40:26;;;;;;;20.77;3.78;;;10.80;99.90;;;;;;5017958;28;20141;-91
2023/03/24 05:42:54;;;;;;;23.17;3.72;;;11.50;99.90;;;;;;5034441;28;20049;-92
2023/03/24 05:45:23;;;;;;;26.02;4.07;;;11.40;99.90;;;;;;5034536;28;20033;-92
2023/03/24 05:48:05;;;;;;;19.35;3.72;;;11.50;99.90;;;;;;5034055;28;20099;-91
2023/03/24 05:50:39;;;;;;;22.60;3.90;;;10.80;99.90;;;;;;5034082;28;20026;-91
2023/03/24 05:53:19;;;;;;;29.67;4.15;;;11.40;99.90;;;;;;5034264;28;20021;-90
2023/03/24 05:56:00;;;;;;;22.60;3.53;;;11.90;99.90;;;;;;5033608;28;20544;-91
2023/03/24 05:58:43;;;;;;;11.85;2.95;;;11.20;99.90;;;;;;5064401;28;20029;-90
2023/03/24 06:01:17;;;;;;;18.58;4.63;;;11.20;99.90;;;;;;5054729;28;20021;-92
2023/03/24 06:04:00;;;;;;;19.30;3.47;;;11.60;99.90;;;;;;5053854;28;20476;-91
2023/03/24 06:06:37;;;;;;;26.60;3.25;;;10.80;99.90;;;;;;5054132;28;20079;-91
2023/03/24 06:09:21;;;;;;;19.67;4.10;;;11.60;99.90;;;;;;5056606;23;20095;-91
2023/03/24 06:11:59;;;;;;;18.48;3.80;;;11.60;99.90;;;;;;5040684;28;20030;-91
2023/03/24 06:14:32;;;;;;;24.92;4.47;;;11.50;99.90;;;;;;5034187;28;20038;-91
2023/03/24 06:17:07;;;;;;;21.20;3.53;;;10.90;99.90;;;;;;5048585;28;20024;-91
2023/03/24 06:19:33;;;;;;;14.15;2.75;;;11.50;99.90;;;;;;5037470;28;20030;-89
2023/03/24 06:22:07;;;;;;;19.38;3.00;;;11.80;99.90;;;;;;5042319;28;20087;-89
2023/03/24 06:24:59;;;;;;;18.58;3.08;;;10.90;99.90;;;;;;5131954;23;20053;-91
2023/03/24 06:27:31;;;;;;;14.85;3.63;;;10.90;99.90;;;;;;5054104;28;20025;-90
2023/03/24 06:29:57;;;;;;;16.15;3.22;;;11.30;99.90;;;;;;5053889;28;20032;-90
2023/03/24 06:32:26;;;;;;;16.45;3.90;;;12.30;99.90;;;;;;5053556;28;20048;-90
2023/03/24 06:37:40;;;;;;;20.17;3.50;;;10.90;99.90;;;;;;5520831;22;20053;-89
2023/03/24 06:40:14;;;;;;;15.88;3.13;;;11.50;99.90;;;;;;5054271;28;20029;-91
2023/03/24 06:43:11;;;;;;;13.60;3.17;;;11.30;99.90;;;;;;5053955;28;20021;-89
2023/03/24 06:45:52;;;;;;;20.58;3.20;;;11.00;99.90;;;;;;5053488;28;20055;-90
2023/03/24 06:51:02;;;;;;;16.80;2.70;;;11.00;99.90;;;;;;5089634;22;20071;-90
2023/03/24 06:53:46;;;;;;;16.83;3.45;;;11.00;99.90;;;;;;5077768;28;20032;-91
2023/03/24 06:56:30;;;;;;;17.10;3.42;;;11.40;99.90;;;;;;5085539;22;20515;-89
2023/03/24 06:59:22;;;;;;;13.38;2.70;;;11.80;99.90;;;;;;5077764;28;20502;-90
2023/03/24 07:02:03;;;;;;;21.13;3.13;;;11.00;99.90;;;;;;5077729;28;20099;-91
2023/03/24 07:04:41;;;;;;;11.88;2.75;;;12.10;99.90;;;;;;5077986;28;20380;-91
2023/03/24 07:07:23;;;;;;;17.40;3.00;;;11.80;99.90;;;;;;5078113;28;20020;-90
2023/03/24 07:09:52;;;;;;;12.55;3.20;;;11.60;99.90;;;;;;5078344;28;20063;-90
2023/03/24 07:12:35;;;;;;;15.45;2.75;;;11.60;99.90;;;;;;5078319;28;20052;-90
2023/03/24 07:15:28;;;;;;;16.20;3.03;;;11.00;99.90;;;;;;5078221;28;20032;-91
2023/03/24 07:18:12;;;;;;;14.30;2.78;;;11.00;99.90;;;;;;5076990;28;20028;-90
2023/03/24 07:20:38;;;;;;;12.80;2.50;;;11.60;99.90;;;;;;5081718;28;20020;-91
2023/03/24 07:23:13;;;;;;;16.70;3.40;;;11.60;99.90;;;;;;5099068;28;20031;-91
2023/03/24 07:26:01;;;;;;;11.73;3.10;;;11.60;99.90;;;;;;5077617;28;20024;-91
2023/03/24 07:28:47;;;;;;;13.00;3.08;;;11.10;99.90;;;;;;5077305;28;20099;-90
2023/03/24 07:31:23;;;;;;;19.08;4.45;;;11.50;99.90;;;;;;5076922;28;20020;-90
2023/03/24 07:34:01;;;;;;;21.70;3.55;;;11.90;99.90;;;;;;5076005;28;20503;-90
2023/03/24 07:36:44;;;;;;;22.98;3.78;;;11.70;99.90;;;;;;5077240;28;20484;-90
2023/03/24 07:39:13;;;;;;;17.45;4.28;;;11.70;99.90;;;;;;5076882;28;20059;-90
2023/03/24 07:41:58;;;;;;;23.95;4.03;;;11.80;99.90;;;;;;5076949;28;20027;-90
2023/03/24 07:44:24;;;;;;;20.17;3.45;;;11.20;99.90;;;;;;5067145;28;20034;-93
2023/03/24 07:47:02;;;;;;;17.65;3.20;;;11.20;99.90;;;;;;5056764;28;20339;-92
2023/03/24 07:50:19;;;;;;;13.20;2.78;;;11.20;99.90;;;;;;5057143;28;20467;-90
2023/03/24 07:56:03;;;;;;;15.10;3.67;;;11.30;99.90;;;;;;4943519;28;20405;-91
2023/03/24 07:58:37;;;;;;;23.40;3.30;;;11.60;99.90;;;;;;4998614;28;20025;-90
2023/03/24 08:01:25;;;;;;;15.18;2.95;;;12.00;99.90;;;;;;5013268;28;20109;-92
2023/03/24 08:04:12;;;;;;;26.75;4.00;;;11.40;99.90;;;;;;5015018;28;20433;-92
2023/03/24 08:06:51;;;;;;;23.98;3.83;;;12.00;99.90;;;;;;5015021;28;20160;-90
2023/03/24 08:09:25;;;;;;;18.45;4.47;;;11.40;99.90;;;;;;5050885;28;20036;-91
2023/03/24 08:11:51;;;;;;;15.88;3.42;;;9.90;99.90;;;;;;5067245;28;20417;-92
2023/03/24 08:14:40;;;;;;;16.33;3.28;;;12.20;99.90;;;;;;5064666;28;20170;-92
2023/03/24 08:17:23;;;;;;;22.75;3.47;;;11.50;99.90;;;;;;5054297;22;20045;-92
2023/03/24 08:20:00;;;;;;;26.65;3.50;;;12.80;99.90;;;;;;5033473;28;20036;-92
2023/03/24 08:23:19;;;;;;;25.20;3.70;;;11.50;99.90;;;;;;4996520;28;20343;-90
2023/03/24 08:26:12;;;;;;;21.85;3.97;;;11.10;99.90;;;;;;4936971;29;20047;-90
2023/03/24 08:29:22;;;;;;;22.70;3.92;;;11.60;99.90;;;;;;4936525;29;20131;-92
2023/03/24 08:32:38;;;;;;;18.17;3.03;;;11.90;99.90;;;;;;4936363;29;20032;-93
2023/03/24 08:35:14;;;;;;;11.18;2.67;;;11.60;99.90;;;;;;4936611;29;20124;-89
2023/03/24 08:49:12;;;;;;;14.65;3.70;;;11.80;99.90;;;;;;5026662;28;20498;-90
2023/03/24 08:51:37;;;;;;;17.38;3.58;;;11.80;99.90;;;;;;4974050;28;20111;-89
2023/03/24 08:54:15;;;;;;;16.75;3.75;;;13.30;99.90;;;;;;4973725;28;20532;-88
2023/03/24 08:56:53;;;;;;;9.70;3.22;;;12.50;99.90;;;;;;5032058;28;20041;-91
2023/03/24 08:59:30;;;;;;;13.35;3.50;;;11.30;99.90;;;;;;5036348;28;20022;-92
2023/03/24 09:02:20;;;;;;;20.52;3.08;;;11.80;99.90;;;;;;5035879;28;20469;-91
2023/03/24 09:05:07;;;;;;;14.67;3.37;;;11.90;99.90;;;;;;5032077;28;20032;-91
2023/03/24 09:07:41;;;;;;;10.63;3.15;;;12.70;99.90;;;;;;5015388;28;20038;-91
2023/03/24 09:10:29;;;;;;;16.70;3.47;;;11.90;99.90;;;;;;5015722;28;20025;-90
2023/03/24 09:12:54;;;;;;;20.05;2.88;;;11.90;99.90;;;;;;5026121;28;20025;-91
2023/03/24 09:15:28;;;;;;;11.10;2.88;;;12.60;99.90;;;;;;5036091;28;20039;-92
2023/03/24 09:18:36;;;;;;;17.17;3.08;;;12.50;99.90;;;;;;5058734;22;20052;-92
2023/03/24 09:21:10;;;;;;;15.52;2.70;;;11.90;99.90;;;;;;5041701;28;20419;-93
2023/03/24 09:23:57;;;;;;;16.40;3.50;;;12.60;99.90;;;;;;5056065;28;20422;-93
2023/03/24 09:26:26;;;;;;;13.18;3.25;;;12.00;99.90;;;;;;5046125;28;20024;-92
2023/03/24 09:29:07;;;;;;;12.95;2.63;;;12.00;99.90;;;;;;5062253;23;20057;-92
2023/03/24 09:31:33;;;;;;;13.75;2.60;;;12.90;99.90;;;;;;5048075;28;20104;-92
2023/03/24 09:36:48;;;;;;;22.40;3.78;;;12.10;99.90;;;;;;5054419;22;20068;-89
2023/03/24 09:39:22;;;;;;;14.90;3.50;;;12.70;99.90;;;;;;5048339;28;20024;-88
2023/03/24 09:41:49;;;;;;;13.18;3.45;;;12.60;99.90;;;;;;5053533;28;20078;-91
2023/03/24 09:44:38;;;;;;;;;;;;;;;;;;;;;
2023/03/24 09:47:52;;;;;;;19.85;3.33;;;12.20;99.90;;;;;;5014165;28;20391;-90
2023/03/24 09:50:44;;;;;;;14.15;3.53;;;12.20;99.90;;;;;;4986384;28;20414;-90
2023/03/24 09:53:58;;;;;;;10.25;3.50;;;12.20;99.90;;;;;;5049310;28;20594;-89
2023/03/24 09:56:36;;;;;;;16.55;2.83;;;12.20;99.90;;;;;;5050828;28;20095;-89
2023/03/24 09:59:19;;;;;;;17.30;3.13;;;12.30;99.90;;;;;;5058973;23;20049;-91
2023/03/24 10:02:21;;;;;;;12.98;2.95;;;12.20;99.90;;;;;;5051292;28;20086;-89
2023/03/24 10:04:53;;;;;;;11.68;2.97;;;12.40;99.90;;;;;;5052480;28;20087;-90
2023/03/24 10:07:45;;;;;;;21.10;3.33;;;12.90;99.90;;;;;;5052939;28;20025;-91
2023/03/24 10:14:16;;;;;;;12.55;3.65;;;12.20;99.90;;;;;;5261147;22;20063;-89
2023/03/24 10:17:25;;;;;;;13.70;3.60;;;12.30;99.90;;;;;;5054310;28;20403;-94
2023/03/24 10:20:04;;;;;;;15.07;2.70;;;12.20;99.90;;;;;;5054126;28;20051;-91
2023/03/24 10:23:21;;;;;;;22.63;3.47;;;12.30;99.90;;;;;;5052621;28;20029;-91
2023/03/24 10:26:12;;;;;;;9.32;2.33;;;12.30;99.90;;;;;;5054267;28;20534;-91
2023/03/24 10:29:05;;;;;;;12.23;3.45;;;12.80;99.90;;;;;;5041597;28;20465;-92
2023/03/24 10:32:30;;;;;;;14.70;2.95;;;12.90;99.90;;;;;;5034563;28;20037;-91
2023/03/24 10:38:27;;;;;;;14.88;3.58;;;12.30;99.90;;;;;;4934197;29;20055;-90
2023/03/24 10:41:35;;;;;;;13.93;3.17;;;12.40;99.90;;;;;;4934888;29;20043;-90
2023/03/24 10:44:06;;;;;;;10.52;3.10;;;12.40;99.90;;;;;;5033627;28;20025;-89
2023/03/24 10:46:52;;;;;;;12.20;3.08;;;12.40;99.90;;;;;;5033631;28;20030;-90
2023/03/24 10:50:18;;;;;;;;;;;;;;;;;;;;;
2023/03/24 10:52:50;;;;;;;14.68;3.33;;;12.50;99.90;;;;;;4985525;28;20041;-90
2023/03/24 10:55:57;;;;;;;8.40;2.80;;;13.20;99.90;;;;;;5053980;28;20163;-88
2023/03/24 10:58:43;;;;;;;11.98;3.00;;;11.30;99.90;;;;;;5053462;28;20025;-91
2023/03/24 11:01:56;;;;;;;14.30;3.15;;;13.00;99.90;;;;;;5053442;28;20064;-91
2023/03/24 11:04:30;;;;;;;15.52;3.08;;;12.60;99.90;;;;;;5015387;28;20061;-90
2023/03/24 11:07:16;;;;;;;11.07;3.05;;;11.50;99.90;;;;;;5054035;28;20032;-89
2023/03/24 11:13:07;;;;;;;;;;;;;;;;;;;;;
2023/03/24 11:16:11;;;;;;;17.70;4.60;;;13.00;99.90;;;;;;5097231;22;20057;-90
2023/03/24 11:18:37;;;;;;;17.15;3.78;;;12.50;99.90;;;;;;5030483;28;20572;-88
2023/03/24 11:41:29;;;;;;;12.98;2.75;;;12.60;99.90;;;;;;5915437;22;20060;-91
2023/03/24 11:44:29;;;;;;;11.98;2.35;;;13.20;99.90;;;;;;5056353;28;20716;-92
2023/03/24 11:47:20;;;;;;;13.05;3.05;;;12.60;99.90;;;;;;5085986;22;20056;-89
2023/03/24 11:57:55;;;;;;;10.45;1.98;;;12.60;99.90;;;;;;5374921;22;20049;-91
2023/03/24 12:03:46;;;;;;;8.95;2.05;;;12.70;99.90;;;;;;5068681;22;20053;-91
2023/03/24 12:07:06;;;;;;;6.50;1.95;;;13.00;99.90;;;;;;5056590;28;20492;-91
2023/03/24 12:36:20;;;;;;;9.45;2.08;;;12.60;99.90;;;;;;5054120;22;20126;-92
2023/03/24 12:46:10;;;;;;;17.60;2.78;;;12.60;99.90;;;;;;5056844;22;20056;-94
2023/03/24 12:52:02;;;;;;;17.27;3.15;;;12.50;99.90;;;;;;5061716;22;20041;-94
2023/03/24 12:57:49;;;;;;;;;;;;;;;;;;;;;
2023/03/24 13:01:01;;;;;;;9.55;2.40;;;12.50;99.90;;;;;;4977962;28;20025;-91
2023/03/24 13:07:16;;;;;;;13.48;2.75;;;12.40;99.90;;;;;;5049839;28;20048;-93
2023/03/24 13:13:48;;;;;;;13.82;2.25;;;12.40;99.90;;;;;;5179245;22;20114;-91
2023/03/24 13:16:39;;;;;;;11.82;2.78;;;12.60;99.90;;;;;;5062485;22;20067;-93
2023/03/24 13:19:15;;;;;;;7.10;1.80;;;12.60;99.90;;;;;;5055740;28;20108;-93
2023/03/24 13:24:33;;;;;;;5.07;1.98;;;12.60;99.90;;;;;;5076000;22;20112;-93
2023/03/24 13:27:10;;;;;;;5.28;1.40;;;13.20;99.90;;;;;;5055389;28;20075;-93
2023/03/24 13:30:15;;;;;;;8.20;1.58;;;12.50;99.90;;;;;;5055108;28;20031;-92
2023/03/24 13:33:08;;;;;;;;;;;;;;;;;;;;;
2023/03/24 13:39:12;;;;;;;12.77;2.17;;;12.40;99.90;;;;;;5056918;28;20380;-92
2023/03/24 13:41:38;;;;;;;13.30;2.03;;;12.80;99.90;;;;;;5055926;28;20025;-93
2023/03/24 13:44:44;;;;;;;18.20;3.58;;;12.90;99.90;;;;;;5056002;28;20470;-93
2023/03/24 13:47:18;;;;;;;14.27;2.53;;;13.50;99.90;;;;;;5045384;28;20400;-95
2023/03/24 13:50:12;;;;;;;11.60;2.13;;;13.70;99.90;;;;;;5054970;28;20100;-93
2023/03/24 13:53:27;;;;;;;5.82;1.60;;;12.30;99.90;;;;;;5054361;28;20064;-92
2023/03/24 14:06:28;;;;;;;13.02;1.70;;;12.60;99.90;;;;;;5033975;28;20048;-91
2023/03/24 14:12:28;;;;;;;11.38;1.70;;;12.70;99.90;;;;;;5061104;23;20052;-92
2023/03/24 14:15:34;;;;;;;12.77;2.17;;;12.70;99.90;;;;;;5046706;28;20544;-93
2023/03/24 14:18:44;;;;;;;12.55;2.00;;;12.60;99.90;;;;;;5046335;23;20121;-92
2023/03/24 14:23:54;;;;;;;5.78;1.80;;;12.60;99.90;;;;;;4996025;28;20041;-90
2023/03/24 14:26:25;;;;;;;9.48;2.00;;;13.30;99.90;;;;;;5004019;28;20758;-91
2023/03/24 14:28:57;;;;;;;6.97;1.48;;;12.60;99.90;;;;;;4992881;28;20033;-91
2023/03/24 14:34:29;;;;;;;9.77;1.73;;;13.20;99.90;;;;;;4993643;28;20041;-91
2023/03/24 14:46:02;;;;;;;10.27;1.83;;;12.90;99.90;;;;;;5184197;23;20128;-93
2023/03/24 14:52:09;;;;;;;10.45;1.67;;;13.10;99.90;;;;;;4920727;29;20087;-94
2023/03/24 14:55:04;;;;;;;9.95;2.15;;;13.40;99.90;;;;;;4915560;29;20056;-94
2023/03/24 14:57:50;;;;;;;12.30;2.83;;;13.30;99.90;;;;;;4915395;29;20032;-93
2023/03/24 15:00:34;;;;;;;11.65;1.95;;;13.70;99.90;;;;;;5032631;23;20080;-95
2023/03/24 15:03:18;;;;;;;8.38;2.13;;;13.10;99.90;;;;;;5053243;28;20029;-94
2023/03/24 15:06:11;;;;;;;13.00;2.13;;;13.20;99.90;;;;;;5053598;28;20388;-93
2023/03/24 15:08:45;;;;;;;11.32;1.88;;;13.30;99.90;;;;;;5053872;28;20114;-94
2023/03/24 15:11:29;;;;;;;10.38;1.75;;;13.50;99.90;;;;;;5054933;28;20449;-94
2023/03/24 15:14:22;;;;;;;14.82;2.67;;;13.90;99.90;;;;;;5049428;22;20137;-93
2023/03/24 15:17:04;;;;;;;10.45;2.17;;;13.20;99.90;;;;;;5034400;28;20028;-93
2023/03/24 15:19:33;;;;;;;16.23;3.00;;;13.60;99.90;;;;;;5036069;28;20025;-93
2023/03/24 15:22:12;;;;;;;15.43;3.22;;;14.10;99.90;;;;;;5037599;28;20021;-94
2023/03/24 15:24:57;;;;;;;10.27;2.20;;;13.90;99.90;;;;;;5035237;28;20022;-94
2023/03/24 15:30:13;;;;;;;9.95;1.95;;;13.60;99.90;;;;;;5043025;22;20064;-94
2023/03/24 15:32:48;;;;;;;11.27;2.50;;;13.60;99.90;;;;;;5057257;28;20017;-93
2023/03/24 15:35:23;;;;;;;11.70;2.63;;;13.60;99.90;;;;;;5058713;22;20080;-94
2023/03/24 15:37:58;;;;;;;10.60;2.03;;;14.20;99.90;;;;;;5036445;28;20465;-94
2023/03/24 15:41:11;;;;;;;9.35;2.63;;;14.20;99.90;;;;;;5048585;22;20048;-93
2023/03/24 15:43:57;;;;;;;8.35;2.00;;;13.50;99.90;;;;;;5203244;22;20037;-94
2023/03/24 15:46:32;;;;;;;13.30;2.47;;;13.40;99.90;;;;;;5030797;23;20103;-94
2023/03/24 15:48:59;;;;;;;9.73;2.15;;;13.40;99.90;;;;;;5037275;28;20384;-93
2023/03/24 15:52:07;;;;;;;12.05;2.47;;;13.70;99.90;;;;;;5036381;28;20037;-95
2023/03/24 15:54:43;;;;;;;15.75;2.90;;;13.20;99.90;;;;;;5036992;28;20098;-93
2023/03/24 15:57:25;;;;;;;15.15;3.47;;;13.60;99.90;;;;;;5036755;28;20028;-95
2023/03/24 16:00:10;;;;;;;13.30;2.90;;;13.00;99.90;;;;;;5056002;28;20029;-93
2023/03/24 16:02:54;;;;;;;12.80;2.45;;;13.90;99.90;;;;;;5063716;22;20057;-94
2023/03/24 16:05:30;;;;;;;10.45;2.05;;;13.10;99.90;;;;;;5058084;28;20083;-94
2023/03/24 16:08:39;;;;;;;10.40;2.22;;;13.50;99.90;;;;;;5063742;22;20053;-92
2023/03/24 16:11:10;;;;;;;12.98;2.60;;;12.90;99.90;;;;;;5056491;28;20021;-94
2023/03/24 16:13:37;;;;;;;16.77;2.10;;;14.20;99.90;;;;;;5055963;28;20116;-94
2023/03/24 16:16:12;;;;;;;7.93;2.33;;;13.60;99.90;;;;;;5056510;28;20029;-95
2023/03/24 16:18:44;;;;;;;9.02;1.98;;;12.00;99.90;;;;;;5056176;28;20090;-94
2023/03/24 16:21:22;;;;;;;3.92;1.25;;;12.10;99.90;;;;;;5055892;28;20021;-94
2023/03/24 16:23:50;;;;;;;9.25;1.60;;;12.20;99.90;;;;;;5055706;28;20112;-94
2023/03/24 16:26:24;;;;;;;9.13;1.85;;;12.20;99.90;;;;;;5056436;28;20021;-93
2023/03/24 16:28:51;;;;;;;14.73;2.42;;;12.20;99.90;;;;;;5056125;28;20109;-94
2023/03/24 16:34:01;;;;;;;13.32;2.50;;;12.40;99.90;;;;;;5080627;22;20064;-93
2023/03/24 16:36:32;;;;;;;18.85;2.67;;;13.10;99.90;;;;;;5056144;28;20021;-94
2023/03/24 16:39:00;;;;;;;12.27;2.53;;;13.20;99.90;;;;;;5056045;28;20045;-93
2023/03/24 16:41:26;;;;;;;22.70;2.88;;;13.60;99.90;;;;;;5062366;22;20052;-94
2023/03/24 16:43:52;;;;;;;9.73;1.95;;;13.30;99.90;;;;;;5056066;28;20392;-94
2023/03/24 16:46:29;;;;;;;12.43;2.28;;;12.70;99.90;;;;;;5055852;28;20033;-93
2023/03/24 16:48:55;;;;;;;10.70;2.30;;;12.80;99.90;;;;;;5055253;28;20029;-95
2023/03/24 16:51:23;;;;;;;14.52;1.98;;;13.60;99.90;;;;;;5056054;28;20032;-94
2023/03/24 16:53:49;;;;;;;13.65;2.97;;;13.60;99.90;;;;;;5054343;28;20041;-94